Phelps, New York
Current Conditions -  °F | °C
As of 8:53 AM on Sunday 23 Nov 2014 (Local Time) from KPEO Reporting Station
Overcast Overcast  
Wind Chill: 45°   Ceiling: 3300
Heat Index: 49°   Visibility: 10mi
Dew Point: 35°   Wind: 9mph
Humidity: 59%   Direction: 190°S
Pressure: 30.08"   Gusts: NA
Location:  42.96°N, 77.06°W
Report Text: KPEO 231353Z AUTO 19008KT 10SM BKN033 OVC055 09/02 A3008 RMK AO2 SLP191 T00940017
Loading
Personal Weather Stations






























Interactive Weather Map New forecast layout! Learn more

10-Day Weather Forecast

Advertisements
Track Severe Weather on mobile